createdAt,value
2018-09-08T00:01:28.344Z,9.53
2018-09-08T00:03:57.765Z,8.65
2018-09-08T00:06:32.108Z,9.53
2018-09-08T00:09:01.664Z,9.10
2018-09-08T00:11:31.218Z,9.90
2018-09-08T00:14:00.492Z,10.25
2018-09-08T00:16:34.932Z,9.63
2018-09-08T00:19:09.566Z,10.13
2018-09-08T00:21:43.945Z,10.13
2018-09-08T00:24:18.393Z,9.95
2018-09-08T00:26:46.660Z,9.28
2018-09-08T00:29:31.125Z,9.53
2018-09-08T00:32:02.157Z,9.70
2018-09-08T00:34:31.524Z,9.95
2018-09-08T00:37:00.968Z,9.93
2018-09-08T00:39:30.295Z,9.80
2018-09-08T00:41:59.553Z,9.53
2018-09-08T00:44:28.825Z,10.03
2018-09-08T00:46:58.076Z,10.00
2018-09-08T00:49:27.559Z,9.50
2018-09-08T00:51:56.974Z,9.43
2018-09-08T00:54:26.377Z,9.45
2018-09-08T00:56:55.688Z,9.30
2018-09-08T00:59:25.096Z,9.08
2018-09-08T01:01:54.475Z,8.53
2018-09-08T01:04:23.849Z,8.80
2018-09-08T01:06:53.191Z,8.63
2018-09-08T01:09:22.472Z,8.55
2018-09-08T01:11:51.797Z,8.17
2018-09-08T01:14:21.110Z,8.33
2018-09-08T01:16:50.584Z,7.83
2018-09-08T01:19:19.989Z,8.25
2018-09-08T01:21:49.405Z,7.08
2018-09-08T01:24:18.612Z,8.48
2018-09-08T01:26:47.874Z,9.15
2018-09-08T01:29:17.321Z,8.40
2018-09-08T01:31:46.792Z,8.63
2018-09-08T01:34:16.197Z,8.83
2018-09-08T01:36:45.627Z,7.92
2018-09-08T01:39:14.877Z,7.85
2018-09-08T01:41:44.118Z,7.60
2018-09-08T01:44:13.533Z,7.03
2018-09-08T01:46:43.110Z,7.28
2018-09-08T01:49:12.489Z,6.80
2018-09-08T01:51:41.826Z,7.62
2018-09-08T01:54:11.861Z,7.30
2018-09-08T01:56:41.344Z,6.97
2018-09-08T01:59:10.927Z,6.85
2018-09-08T02:01:40.354Z,6.90
2018-09-08T02:04:09.652Z,6.70
2018-09-08T02:06:40.103Z,6.95
2018-09-08T02:09:09.852Z,6.65
2018-09-08T02:11:39.379Z,6.20
2018-09-08T02:14:08.779Z,7.58
2018-09-08T02:16:38.105Z,7.00
2018-09-08T02:19:07.396Z,7.50
2018-09-08T02:21:36.613Z,7.10
2018-09-08T02:24:06.048Z,6.90
2018-09-08T02:26:35.485Z,7.33
2018-09-08T02:29:04.765Z,7.80
2018-09-08T02:31:34.115Z,7.37
2018-09-08T02:34:03.472Z,7.33
2018-09-08T02:36:32.712Z,7.35
2018-09-08T02:39:02.681Z,7.15
2018-09-08T02:41:32.012Z,6.80
2018-09-08T02:44:01.216Z,7.55
2018-09-08T02:46:30.560Z,7.62
2018-09-08T02:49:00.001Z,6.92
2018-09-08T02:51:27.765Z,7.90
2018-09-08T02:53:55.530Z,7.92
2018-09-08T02:56:23.302Z,7.50
2018-09-08T02:58:51.382Z,7.45
2018-09-08T03:01:19.138Z,7.60
2018-09-08T03:03:46.872Z,7.07
2018-09-08T03:06:14.757Z,7.55
2018-09-08T03:08:42.621Z,8.33
2018-09-08T03:11:10.469Z,8.30
2018-09-08T03:13:38.260Z,8.33
2018-09-08T03:16:05.971Z,7.97
2018-09-08T03:18:33.885Z,7.60
2018-09-08T03:21:01.605Z,8.05
2018-09-08T03:23:29.406Z,8.43
2018-09-08T03:25:57.941Z,8.50
2018-09-08T03:28:25.717Z,7.97
2018-09-08T03:30:53.927Z,8.53
2018-09-08T03:33:21.698Z,8.38
2018-09-08T03:35:49.451Z,8.00
2018-09-08T03:38:17.208Z,7.55
2018-09-08T03:40:44.985Z,8.08
2018-09-08T03:43:12.740Z,8.40
2018-09-08T03:45:40.513Z,8.30
2018-09-08T03:48:08.388Z,8.35
2018-09-08T03:50:36.245Z,8.13
2018-09-08T03:53:03.963Z,7.80
2018-09-08T03:55:31.772Z,8.23
2018-09-08T03:57:59.537Z,8.53
2018-09-08T04:00:27.289Z,8.08
2018-09-08T04:02:56.693Z,8.00
2018-09-08T04:05:25.998Z,7.78
2018-09-08T04:07:55.241Z,7.97
2018-09-08T04:10:24.500Z,8.03
2018-09-08T04:12:54.309Z,7.87
2018-09-08T04:15:23.660Z,7.75
2018-09-08T04:17:52.993Z,7.85
2018-09-08T04:20:22.332Z,7.12
2018-09-08T04:22:51.677Z,7.55
2018-09-08T04:25:21.104Z,7.70
2018-09-08T04:27:50.480Z,6.60
2018-09-08T04:30:19.845Z,7.50
2018-09-08T04:32:49.129Z,7.20
2018-09-08T04:35:18.342Z,6.33
2018-09-08T04:37:47.717Z,5.95
2018-09-08T04:40:17.097Z,6.85
2018-09-08T04:42:46.627Z,6.77
2018-09-08T04:45:16.021Z,6.97
2018-09-08T04:47:45.289Z,7.47
2018-09-08T04:50:14.871Z,7.62
2018-09-08T04:52:44.336Z,7.70
2018-09-08T04:55:13.725Z,7.12
2018-09-08T04:57:43.055Z,6.40
2018-09-08T05:00:12.341Z,6.50
2018-09-08T05:02:41.570Z,6.70
2018-09-08T05:05:11.141Z,7.40
2018-09-08T05:07:40.439Z,7.37
2018-09-08T05:10:09.849Z,7.33
2018-09-08T05:12:39.142Z,7.03
2018-09-08T05:15:08.465Z,6.17
2018-09-08T05:17:37.733Z,7.00
2018-09-08T05:20:07.411Z,5.60
2018-09-08T05:22:36.721Z,6.95
2018-09-08T05:25:06.059Z,7.03
2018-09-08T05:27:35.445Z,7.47
2018-09-08T05:30:04.973Z,7.12
2018-09-08T05:32:34.194Z,7.70
2018-09-08T05:35:03.694Z,8.43
2018-09-08T05:37:32.872Z,8.68
2018-09-08T05:40:02.125Z,7.45
2018-09-08T05:42:31.565Z,7.05
2018-09-08T05:45:00.869Z,7.30
2018-09-08T05:47:30.148Z,8.50
2018-09-08T05:49:59.480Z,9.50
2018-09-08T05:52:28.646Z,9.18
2018-09-08T05:54:58.585Z,9.35
2018-09-08T05:57:27.884Z,9.27
2018-09-08T05:59:57.284Z,9.70
2018-09-08T06:02:26.722Z,9.90
2018-09-08T06:04:56.025Z,9.63
2018-09-08T06:07:25.373Z,9.55
2018-09-08T06:09:54.678Z,10.05
2018-09-08T06:12:23.996Z,10.27
2018-09-08T06:14:53.262Z,9.68
2018-09-08T06:17:22.563Z,9.90
2018-09-08T06:19:51.864Z,9.73
2018-09-08T06:22:21.655Z,9.58
2018-09-08T06:24:52.343Z,9.75
2018-09-08T06:27:22.074Z,10.28
2018-09-08T06:29:51.757Z,9.60
2018-09-08T06:32:22.164Z,10.53
2018-09-08T06:34:51.453Z,10.25
2018-09-08T06:37:21.212Z,9.23
2018-09-08T06:39:50.747Z,9.13
2018-09-08T06:42:22.316Z,9.15
2018-09-08T06:44:51.998Z,9.45
2018-09-08T06:47:21.764Z,9.90
2018-09-08T06:49:52.243Z,9.28
2018-09-08T06:52:22.954Z,9.70
2018-09-08T06:54:54.104Z,9.70
2018-09-08T06:57:25.433Z,9.73
2018-09-08T06:59:57.286Z,7.70
2018-09-08T07:02:26.868Z,6.72
2018-09-08T07:04:56.801Z,6.75
2018-09-08T07:07:26.393Z,7.08
2018-09-08T07:09:55.710Z,6.90
2018-09-08T07:12:25.051Z,6.45
2018-09-08T07:14:54.524Z,5.83
2018-09-08T07:17:23.881Z,5.55
2018-09-08T07:19:53.278Z,5.58
2018-09-08T07:22:22.638Z,5.35
2018-09-08T07:24:52.117Z,5.37
2018-09-08T07:27:21.787Z,5.23
2018-09-08T07:29:51.132Z,5.10
2018-09-08T07:32:20.946Z,5.45
2018-09-08T07:34:50.426Z,5.47
2018-09-08T07:37:19.781Z,5.70
2018-09-08T07:39:49.195Z,5.12
2018-09-08T07:42:18.784Z,5.25
2018-09-08T07:44:48.416Z,5.22
2018-09-08T07:47:17.862Z,5.42
2018-09-08T07:49:47.144Z,5.58
2018-09-08T07:52:16.489Z,5.40
2018-09-08T07:54:46.016Z,5.00
2018-09-08T07:57:15.469Z,5.10
2018-09-08T07:59:44.880Z,5.10
2018-09-08T08:02:14.244Z,5.62
2018-09-08T08:04:43.476Z,5.77
2018-09-08T08:07:13.776Z,5.47
2018-09-08T08:09:44.397Z,4.80
2018-09-08T08:12:13.915Z,5.00
2018-09-08T08:14:43.329Z,4.53
2018-09-08T08:17:12.826Z,4.80
2018-09-08T08:19:42.093Z,5.00
2018-09-08T08:22:11.602Z,4.87
2018-09-08T08:24:41.067Z,4.62
2018-09-08T08:27:10.824Z,4.35
2018-09-08T08:29:40.049Z,4.62
2018-09-08T08:32:09.615Z,4.57
2018-09-08T08:34:39.736Z,4.30
2018-09-08T08:37:10.744Z,4.42
2018-09-08T08:39:40.608Z,4.65
2018-09-08T08:42:22.782Z,4.80
2018-09-08T08:44:52.217Z,4.72
2018-09-08T08:47:23.666Z,4.67
2018-09-08T08:50:04.016Z,4.83
2018-09-08T08:52:44.264Z,4.87
2018-09-08T08:55:12.284Z,5.10
2018-09-08T08:57:41.915Z,4.92
2018-09-08T09:00:10.953Z,4.95
2018-09-08T09:02:39.996Z,4.90
2018-09-08T09:05:09.013Z,5.22
2018-09-08T09:07:38.463Z,4.95
2018-09-08T09:10:07.268Z,5.10
2018-09-08T09:12:36.501Z,4.80
2018-09-08T09:15:05.763Z,5.67
2018-09-08T09:17:34.506Z,5.05
2018-09-08T09:20:14.225Z,5.00
2018-09-08T09:25:08.924Z,5.35
2018-09-08T09:27:42.534Z,4.53
2018-09-08T09:30:11.805Z,4.67
2018-09-08T09:32:40.852Z,4.67
2018-09-08T09:35:11.475Z,5.37
2018-09-08T09:37:40.501Z,4.67
2018-09-08T09:40:10.290Z,4.58
2018-09-08T09:42:39.307Z,5.30
2018-09-08T09:45:09.089Z,5.72
2018-09-08T09:47:38.108Z,5.55
2018-09-08T09:50:08.444Z,5.03
2018-09-08T09:52:37.563Z,5.53
2018-09-08T09:55:06.781Z,5.70
2018-09-08T09:57:36.036Z,4.80
2018-09-08T10:00:05.617Z,5.30
2018-09-08T10:02:34.765Z,6.20
2018-09-08T10:05:03.854Z,5.62
2018-09-08T10:07:32.889Z,5.40
2018-09-08T10:10:01.930Z,4.97
2018-09-08T10:12:30.965Z,5.42
2018-09-08T10:15:00.005Z,5.80
2018-09-08T10:17:29.073Z,6.28
2018-09-08T10:19:58.166Z,5.50
2018-09-08T10:22:27.239Z,5.37
2018-09-08T10:24:56.280Z,5.13
2018-09-08T10:27:25.320Z,5.80
2018-09-08T10:29:54.549Z,5.17
2018-09-08T10:32:23.842Z,5.70
2018-09-08T10:34:53.014Z,6.00
2018-09-08T10:37:22.058Z,5.73
2018-09-08T10:39:51.135Z,5.97
2018-09-08T10:42:20.185Z,5.22
2018-09-08T10:44:49.241Z,5.70
2018-09-08T10:47:18.261Z,6.92
2018-09-08T10:49:47.332Z,6.72
2018-09-08T10:52:54.357Z,5.53
2018-09-08T10:55:23.385Z,6.37
2018-09-08T10:57:52.426Z,5.20
2018-09-08T11:00:21.492Z,5.50
2018-09-08T11:02:50.844Z,5.90
2018-09-08T11:05:19.621Z,5.90
2018-09-08T11:07:48.624Z,5.22
2018-09-08T11:10:18.089Z,5.72
2018-09-08T11:12:47.730Z,6.03
2018-09-08T11:15:17.265Z,5.78
2018-09-08T11:17:46.672Z,5.22
2018-09-08T11:20:16.078Z,5.55
2018-09-08T11:22:45.448Z,5.90
2018-09-08T11:25:14.889Z,5.45
2018-09-08T11:27:44.264Z,5.20
2018-09-08T11:30:13.708Z,5.57
2018-09-08T11:32:46.500Z,5.60
2018-09-08T11:35:18.677Z,5.08
2018-09-08T11:37:54.348Z,5.30
2018-09-08T11:40:29.433Z,5.53
2018-09-08T11:43:02.348Z,4.97
2018-09-08T11:45:35.010Z,4.70
2018-09-08T11:48:09.507Z,9.73
2018-09-08T11:50:44.289Z,5.70
2018-09-08T11:53:16.645Z,5.80
2018-09-08T11:55:48.303Z,5.40
2018-09-08T11:58:20.074Z,5.87
2018-09-08T12:00:52.548Z,5.12
2018-09-08T12:03:26.236Z,5.80
2018-09-08T12:05:59.534Z,5.33
2018-09-08T12:08:33.590Z,5.03
2018-09-08T12:11:07.922Z,5.10
2018-09-08T12:13:40.508Z,4.20
2018-09-08T12:16:12.956Z,5.15
2018-09-08T12:18:43.764Z,5.67
2018-09-08T12:21:14.783Z,5.13
2018-09-08T12:23:47.695Z,4.70
2018-09-08T12:26:22.269Z,5.10
2018-09-08T12:28:52.599Z,5.25
2018-09-08T12:31:26.201Z,5.10
2018-09-08T12:33:58.398Z,5.28
2018-09-08T12:36:29.497Z,4.42
2018-09-08T12:39:02.680Z,6.78
2018-09-08T12:41:33.508Z,5.00
2018-09-08T12:44:04.828Z,5.15
2018-09-08T12:46:36.210Z,4.78
2018-09-08T12:49:09.799Z,5.03
2018-09-08T12:51:44.379Z,4.95
2018-09-08T12:54:16.898Z,5.67
2018-09-08T12:56:51.663Z,4.40
2018-09-08T12:59:23.591Z,4.70
2018-09-08T13:01:57.233Z,4.53
2018-09-08T13:04:27.973Z,5.30
2018-09-08T13:06:59.914Z,5.75
2018-09-08T13:09:31.333Z,5.22
2018-09-08T13:12:05.278Z,5.08
2018-09-08T13:14:36.919Z,4.17
2018-09-08T13:17:08.314Z,5.17
2018-09-08T13:19:43.020Z,4.33
2018-09-08T13:22:14.296Z,4.55
2018-09-08T13:24:45.077Z,4.08
2018-09-08T13:27:16.305Z,4.20
2018-09-08T13:29:47.924Z,4.97
2018-09-08T13:32:19.347Z,4.90
2018-09-08T13:34:51.691Z,5.70
2018-09-08T13:37:22.375Z,4.20
2018-09-08T13:39:58.503Z,4.80
2018-09-08T13:42:30.589Z,4.65
2018-09-08T13:45:01.528Z,4.40
2018-09-08T13:47:32.305Z,4.50
2018-09-08T13:50:03.367Z,4.60
2018-09-08T13:52:34.171Z,4.60
2018-09-08T13:55:04.829Z,5.03
2018-09-08T13:57:37.355Z,5.20
2018-09-08T14:00:08.664Z,4.20
2018-09-08T14:02:39.695Z,4.62
2018-09-08T14:05:10.518Z,3.95
2018-09-08T14:07:46.742Z,4.97
2018-09-08T14:10:18.716Z,4.62
2018-09-08T14:12:49.682Z,4.50
2018-09-08T14:15:20.408Z,3.92
2018-09-08T14:17:51.553Z,3.65
2018-09-08T14:20:22.418Z,4.10
2018-09-08T14:22:53.011Z,4.53
2018-09-08T14:25:23.461Z,4.15
2018-09-08T14:27:53.979Z,4.28
2018-09-08T14:30:24.526Z,4.05
2018-09-08T14:32:55.249Z,4.40
2018-09-08T14:35:25.816Z,4.03
2018-09-08T14:37:57.222Z,4.60
2018-09-08T14:40:28.007Z,4.70
2018-09-08T14:42:58.781Z,5.30
2018-09-08T14:45:29.608Z,5.15
2018-09-08T14:48:00.205Z,4.50
2018-09-08T14:50:30.912Z,4.60
2018-09-08T14:53:01.621Z,4.67
2018-09-08T14:55:32.326Z,5.03
2018-09-08T14:58:03.055Z,4.57
2018-09-08T15:00:34.579Z,4.90
2018-09-08T15:03:05.407Z,5.22
2018-09-08T15:05:36.549Z,4.55
2018-09-08T15:08:07.708Z,4.40
2018-09-08T15:10:38.452Z,4.30
2018-09-08T15:13:09.522Z,3.90
2018-09-08T15:15:40.401Z,4.22
2018-09-08T15:18:11.875Z,4.15
2018-09-08T15:20:43.627Z,3.65
2018-09-08T15:23:14.232Z,4.35
2018-09-08T15:25:44.694Z,4.30
2018-09-08T15:28:15.615Z,4.08
2018-09-08T15:30:46.188Z,4.45
2018-09-08T15:33:16.807Z,3.93
2018-09-08T15:35:47.538Z,4.22
2018-09-08T15:38:18.023Z,4.08
2018-09-08T15:40:48.518Z,4.35
2018-09-08T15:43:19.075Z,4.53
2018-09-08T15:45:50.301Z,3.87
2018-09-08T15:48:20.786Z,4.90
2018-09-08T15:50:51.326Z,4.80
2018-09-08T15:53:22.154Z,4.43
2018-09-08T15:55:52.545Z,4.03
2018-09-08T15:58:23.503Z,4.90
2018-09-08T16:00:54.343Z,3.72
2018-09-08T16:03:25.008Z,5.60
2018-09-08T16:05:55.845Z,4.30
2018-09-08T16:08:26.507Z,3.90
2018-09-08T16:10:57.461Z,3.70
2018-09-08T16:13:28.148Z,3.87
2018-09-08T16:15:58.792Z,3.95
2018-09-08T16:18:30.455Z,4.65
2018-09-08T16:21:01.266Z,3.87
2018-09-08T16:23:32.001Z,3.95
2018-09-08T16:26:03.148Z,4.00
2018-09-08T16:28:36.618Z,3.58
2018-09-08T16:31:10.661Z,3.70
2018-09-08T16:33:44.379Z,3.70
2018-09-08T16:36:15.529Z,4.55
2018-09-08T16:38:46.528Z,3.75
2018-09-08T16:41:18.870Z,3.90
2018-09-08T16:43:49.831Z,3.87
2018-09-08T16:46:20.572Z,3.80
2018-09-08T16:48:51.099Z,4.03
2018-09-08T16:51:21.344Z,3.95
2018-09-08T16:53:52.474Z,3.75
2018-09-08T16:56:23.003Z,3.40
2018-09-08T16:58:53.486Z,3.60
2018-09-08T17:01:24.222Z,3.87
2018-09-08T17:03:55.674Z,3.77
2018-09-08T17:06:26.345Z,4.17
2018-09-08T17:08:56.620Z,4.03
2018-09-08T17:11:33.547Z,4.30
2018-09-08T17:14:06.985Z,4.22
2018-09-08T17:16:43.871Z,4.10
2018-09-08T17:19:13.816Z,3.83
2018-09-08T17:21:44.222Z,4.05
2018-09-08T17:24:14.286Z,4.35
2018-09-08T17:26:44.502Z,4.15
2018-09-08T17:29:14.431Z,3.85
2018-09-08T17:31:44.380Z,4.33
2018-09-08T17:34:14.434Z,3.80
2018-09-08T17:36:45.399Z,4.22
2018-09-08T17:39:15.476Z,4.03
2018-09-08T17:41:45.444Z,4.10
2018-09-08T17:44:15.563Z,4.45
2018-09-08T17:46:45.634Z,4.15
2018-09-08T17:49:15.635Z,4.10
2018-09-08T17:51:45.745Z,4.30
2018-09-08T17:54:15.921Z,5.00
2018-09-08T17:56:45.866Z,5.05
2018-09-08T17:59:16.337Z,8.83
2018-09-08T18:01:46.652Z,10.80
2018-09-08T18:04:16.556Z,8.15
2018-09-08T18:06:46.617Z,9.73
2018-09-08T18:09:16.573Z,9.08
2018-09-08T18:11:46.736Z,10.05
2018-09-08T18:14:17.768Z,8.43
2018-09-08T18:16:48.734Z,8.30
2018-09-08T18:19:20.888Z,8.10
2018-09-08T18:21:51.334Z,8.63
2018-09-08T18:24:21.996Z,7.77
2018-09-08T18:26:52.116Z,7.78
2018-09-08T18:29:23.826Z,8.10
2018-09-08T18:31:53.548Z,8.35
2018-09-08T18:34:23.614Z,7.83
2018-09-08T18:36:55.392Z,8.03
2018-09-08T18:39:25.767Z,7.90
2018-09-08T18:41:55.838Z,8.00
2018-09-08T18:44:25.977Z,8.13
2018-09-08T18:46:56.992Z,8.43
2018-09-08T18:49:27.972Z,8.60
2018-09-08T18:51:58.736Z,9.25
2018-09-08T18:54:29.455Z,8.58
2018-09-08T18:56:59.940Z,8.70
2018-09-08T18:59:29.993Z,9.03
2018-09-08T19:01:59.890Z,9.20
2018-09-08T19:04:29.784Z,9.10
2018-09-08T19:06:59.825Z,8.78
2018-09-08T19:09:29.637Z,9.25
2018-09-08T19:11:59.971Z,9.05
2018-09-08T19:14:35.296Z,9.88
2018-09-08T19:17:06.465Z,10.75
2018-09-08T19:19:37.135Z,11.08
2018-09-08T19:22:06.803Z,10.63
2018-09-08T19:24:42.089Z,10.78
2018-09-08T19:27:12.570Z,10.73
2018-09-08T19:29:49.613Z,11.73
2018-09-08T19:32:20.636Z,11.35
2018-09-08T19:34:57.840Z,11.53
2018-09-08T19:37:38.164Z,11.63
2018-09-08T19:40:14.425Z,11.95
2018-09-08T19:42:48.696Z,12.20
2018-09-08T19:45:20.694Z,11.60
2018-09-08T19:47:56.834Z,10.70
2018-09-08T19:50:28.578Z,10.60
2018-09-08T19:53:04.906Z,10.38
2018-09-08T19:55:36.082Z,10.60
2018-09-08T19:58:11.725Z,11.07
2018-09-08T20:00:42.058Z,10.70
2018-09-08T20:03:13.804Z,10.13
2018-09-08T20:05:45.758Z,11.00
2018-09-08T20:08:17.417Z,10.18
2018-09-08T20:10:47.470Z,10.65
2018-09-08T20:13:18.284Z,10.00
2018-09-08T20:15:49.230Z,10.35
2018-09-08T20:18:19.768Z,10.53
2018-09-08T20:20:51.515Z,9.53
2018-09-08T20:23:22.998Z,9.88
2018-09-08T20:25:54.849Z,9.63
2018-09-08T20:28:25.596Z,9.65
2018-09-08T20:30:56.067Z,9.58
2018-09-08T20:33:27.502Z,8.83
2018-09-08T20:35:59.810Z,9.43
2018-09-08T20:38:30.614Z,8.93
2018-09-08T20:41:01.673Z,8.78
2018-09-08T20:43:32.309Z,9.43
2018-09-08T20:46:03.214Z,8.18
2018-09-08T20:48:33.784Z,8.50
2018-09-08T20:51:04.498Z,8.13
2018-09-08T20:53:35.266Z,8.65
2018-09-08T20:56:06.436Z,7.70
2018-09-08T20:58:38.831Z,8.60
2018-09-08T21:01:11.752Z,9.03
2018-09-08T21:03:43.044Z,8.60
2018-09-08T21:06:14.317Z,8.40
2018-09-08T21:08:47.214Z,8.53
2018-09-08T21:11:18.268Z,8.90
2018-09-08T21:13:49.108Z,8.53
2018-09-08T21:16:19.875Z,8.85
2018-09-08T21:18:51.111Z,8.65
2018-09-08T21:21:22.244Z,8.70
2018-09-08T21:23:53.052Z,8.47
2018-09-08T21:26:24.049Z,8.87
2018-09-08T21:28:55.150Z,9.30
2018-09-08T21:31:26.206Z,9.53
2018-09-08T21:33:57.177Z,8.85
2018-09-08T21:36:28.026Z,8.30
2018-09-08T21:38:58.839Z,8.90
2018-09-08T21:41:29.807Z,9.08
2018-09-08T21:44:00.802Z,9.27
2018-09-08T21:46:31.748Z,9.55
2018-09-08T21:49:02.507Z,10.08
2018-09-08T21:51:33.518Z,10.28
2018-09-08T21:54:04.867Z,9.50
2018-09-08T21:56:35.930Z,8.87
2018-09-08T21:59:07.163Z,8.85
2018-09-08T22:01:38.412Z,9.40
2018-09-08T22:04:09.429Z,9.73
2018-09-08T22:06:40.519Z,10.18
2018-09-08T22:09:11.363Z,9.73
2018-09-08T22:11:42.693Z,9.93
2018-09-08T22:14:14.670Z,10.15
2018-09-08T22:16:45.941Z,10.00
2018-09-08T22:19:16.708Z,10.15
2018-09-08T22:21:47.469Z,9.33
2018-09-08T22:24:18.569Z,9.78
2018-09-08T22:26:50.352Z,10.50
2018-09-08T22:29:22.798Z,10.33
2018-09-08T22:31:53.952Z,10.45
2018-09-08T22:34:24.929Z,11.80
2018-09-08T22:36:55.664Z,11.05
2018-09-08T22:39:26.971Z,10.23
2018-09-08T22:41:58.034Z,9.30
2018-09-08T22:44:29.061Z,10.23
2018-09-08T22:46:59.775Z,10.43
2018-09-08T22:49:30.929Z,10.45
2018-09-08T22:52:02.024Z,9.73
2018-09-08T22:54:32.852Z,9.93
2018-09-08T22:57:03.792Z,10.82
2018-09-08T22:59:34.521Z,11.10
2018-09-08T23:02:05.850Z,10.70
2018-09-08T23:04:36.906Z,10.28
2018-09-08T23:07:07.760Z,11.30
2018-09-08T23:09:38.392Z,12.03
2018-09-08T23:12:09.253Z,10.40
2018-09-08T23:14:40.313Z,11.15
2018-09-08T23:17:11.311Z,12.15
2018-09-08T23:19:42.195Z,12.25
2018-09-08T23:22:12.920Z,12.50
2018-09-08T23:24:44.262Z,12.18
2018-09-08T23:27:15.224Z,11.63
2018-09-08T23:29:46.286Z,12.28
2018-09-08T23:32:17.744Z,11.53
2018-09-08T23:34:48.730Z,12.13
2018-09-08T23:37:20.233Z,11.68
2018-09-08T23:39:51.338Z,12.07
2018-09-08T23:42:30.377Z,11.15
2018-09-08T23:45:01.559Z,11.57
2018-09-08T23:47:32.334Z,11.38
2018-09-08T23:50:03.298Z,11.03
2018-09-08T23:52:34.182Z,10.70
2018-09-08T23:55:05.338Z,10.53
2018-09-08T23:57:36.419Z,12.30
